Time;durP1;ratioP1;P1;durP2;ratioP2;P2;SDS_P1;SDS_P2;PMS_P1;PMS_P2;Temp;Humidity;BMP_temperature;BMP_pressure;BME280_temperature;BME280_humidity;BME280_pressure;Samples;Min_cycle;Max_cycle;Signal;HPM_P1;HPM_P2
2023/02/07 00:01:22;;;;;;;24.25;10.90;;;2.30;99.90;;;;;;4979239;28;20187;-89
2023/02/07 00:03:51;;;;;;;32.20;10.98;;;2.20;99.90;;;;;;5006779;28;20559;-89
2023/02/07 00:06:30;;;;;;;21.20;10.60;;;2.20;99.90;;;;;;5003360;28;20338;-90
2023/02/07 00:08:58;;;;;;;40.25;13.02;;;2.20;99.90;;;;;;4991854;28;20229;-90
2023/02/07 00:11:24;;;;;;;34.58;10.93;;;2.20;99.90;;;;;;4995741;28;20180;-89
2023/02/07 00:13:52;;;;;;;28.00;10.30;;;2.20;99.90;;;;;;4991636;28;20190;-89
2023/02/07 00:16:33;;;;;;;34.00;10.75;;;2.10;99.90;;;;;;5008542;28;20230;-89
2023/02/07 00:19:02;;;;;;;25.60;10.38;;;2.10;99.90;;;;;;5003427;28;20175;-92
2023/02/07 00:21:43;;;;;;;27.25;8.98;;;2.10;99.90;;;;;;5006795;28;20192;-90
2023/02/07 00:24:12;;;;;;;25.75;10.15;;;2.10;99.90;;;;;;5002579;28;20253;-90
2023/02/07 00:26:42;;;;;;;20.15;9.50;;;2.10;99.90;;;;;;4995010;28;20310;-89
2023/02/07 00:29:10;;;;;;;25.50;9.88;;;2.00;99.90;;;;;;4985767;28;20261;-89
2023/02/07 00:31:39;;;;;;;23.02;9.32;;;1.90;99.90;;;;;;4979035;28;20210;-89
2023/02/07 00:34:09;;;;;;;28.85;9.70;;;1.90;99.90;;;;;;4991724;28;20234;-88
2023/02/07 00:36:55;;;;;;;30.05;11.15;;;1.80;99.90;;;;;;4992275;28;20180;-88
2023/02/07 00:39:21;;;;;;;30.85;9.38;;;1.70;99.90;;;;;;4992422;28;20667;-88
2023/02/07 00:41:47;;;;;;;28.33;9.60;;;1.70;99.90;;;;;;4984701;28;20278;-87
2023/02/07 00:44:12;;;;;;;28.77;9.90;;;1.70;99.90;;;;;;4988614;28;20203;-89
2023/02/07 00:46:38;;;;;;;25.03;10.50;;;1.60;99.90;;;;;;4995967;28;20187;-89
2023/02/07 00:49:06;;;;;;;24.20;8.53;;;1.60;99.90;;;;;;5008320;28;20294;-89
2023/02/07 00:51:40;;;;;;;25.52;10.45;;;1.60;99.90;;;;;;4985931;28;20439;-88
2023/02/07 00:54:09;;;;;;;27.27;9.38;;;1.60;99.90;;;;;;4992309;28;20243;-89
2023/02/07 00:56:37;;;;;;;18.50;10.00;;;1.60;99.90;;;;;;4991389;28;20184;-89
2023/02/07 00:59:06;;;;;;;23.48;10.35;;;1.60;99.90;;;;;;5000956;28;20274;-89
2023/02/07 01:01:32;;;;;;;29.95;9.60;;;1.60;99.90;;;;;;4990136;28;20183;-88
2023/02/07 01:04:01;;;;;;;21.33;9.70;;;1.60;99.90;;;;;;4996186;28;20222;-88
2023/02/07 01:06:27;;;;;;;26.15;9.70;;;1.60;99.90;;;;;;4987908;28;20275;-92
2023/02/07 01:08:59;;;;;;;25.67;9.60;;;1.60;99.90;;;;;;4986312;28;20296;-89
2023/02/07 01:11:29;;;;;;;24.15;10.75;;;1.50;99.90;;;;;;4988122;28;20179;-90
2023/02/07 01:13:57;;;;;;;25.45;9.80;;;1.50;99.90;;;;;;5000483;28;20583;-89
2023/02/07 01:16:30;;;;;;;37.08;10.25;;;1.50;99.90;;;;;;4991391;28;20206;-89
2023/02/07 01:18:55;;;;;;;22.98;8.27;;;1.50;99.90;;;;;;4988827;28;20184;-89
2023/02/07 01:21:24;;;;;;;25.20;9.60;;;1.50;99.90;;;;;;4993942;28;20207;-89
2023/02/07 01:23:49;;;;;;;18.27;8.32;;;1.40;99.90;;;;;;4992192;28;20446;-88
2023/02/07 01:26:15;;;;;;;20.83;9.03;;;1.40;99.90;;;;;;4990908;28;20180;-86
2023/02/07 01:28:41;;;;;;;16.50;9.10;;;1.40;60.30;;;;;;4985702;28;21745;-89
2023/02/07 01:31:11;;;;;;;15.23;7.67;;;1.40;20.50;;;;;;4989958;28;20188;-88
2023/02/07 01:33:37;;;;;;;18.25;7.40;;;1.40;1.00;;;;;;4990205;28;20191;-87
2023/02/07 01:36:12;;;;;;;14.83;7.33;;;1.40;1.00;;;;;;4991406;28;20235;-89
2023/02/07 01:38:39;;;;;;;25.17;10.90;;;1.40;1.00;;;;;;4992639;28;20418;-88
2023/02/07 01:41:04;;;;;;;19.10;9.70;;;1.40;1.00;;;;;;5005325;28;20214;-89
2023/02/07 01:43:31;;;;;;;19.53;8.73;;;1.40;1.00;;;;;;4988760;28;20542;-88
2023/02/07 01:45:56;;;;;;;16.13;8.52;;;1.40;99.90;;;;;;4994980;28;20183;-87
2023/02/07 01:48:36;;;;;;;13.67;6.57;;;1.40;99.90;;;;;;4994436;28;20195;-89
2023/02/07 01:51:05;;;;;;;15.35;7.75;;;1.30;99.90;;;;;;4995163;28;20239;-89
2023/02/07 01:53:36;;;;;;;12.65;7.15;;;1.30;99.90;;;;;;5012563;28;20259;-91
2023/02/07 01:56:05;;;;;;;17.27;8.55;;;1.30;99.90;;;;;;5010616;28;20192;-88
2023/02/07 01:58:32;;;;;;;15.85;8.18;;;1.30;99.90;;;;;;5002497;28;20282;-87
2023/02/07 02:01:02;;;;;;;18.02;8.10;;;1.30;99.90;;;;;;4994644;28;20690;-89
2023/02/07 02:03:31;;;;;;;13.73;7.65;;;1.30;99.90;;;;;;5005906;28;20279;-89
2023/02/07 02:06:06;;;;;;;17.55;9.07;;;1.30;99.90;;;;;;4994575;28;20271;-89
2023/02/07 02:08:31;;;;;;;20.10;9.60;;;1.30;99.90;;;;;;4994510;28;20233;-89
2023/02/07 02:11:23;;;;;;;16.00;7.83;;;1.30;99.90;;;;;;4992492;28;20210;-90
2023/02/07 02:14:08;;;;;;;15.48;8.40;;;1.30;99.90;;;;;;4994796;28;20176;-89
2023/02/07 02:16:41;;;;;;;16.65;7.35;;;1.20;69.80;;;;;;4994372;28;20554;-90
2023/02/07 02:19:19;;;;;;;17.40;7.30;;;1.20;73.70;;;;;;4995565;28;20180;-90
2023/02/07 02:22:25;;;;;;;14.82;8.75;;;1.20;99.90;;;;;;4998293;28;20245;-90
2023/02/07 02:25:04;;;;;;;15.98;7.85;;;1.20;45.70;;;;;;4982939;28;20200;-90
2023/02/07 02:27:55;;;;;;;15.95;9.57;;;1.20;45.10;;;;;;4991048;28;20191;-90
2023/02/07 02:31:02;;;;;;;15.77;8.90;;;1.20;47.00;;;;;;4984267;28;20818;-90
2023/02/07 02:33:34;;;;;;;16.70;7.05;;;1.20;15.00;;;;;;4973453;28;20197;-90
2023/02/07 02:36:20;;;;;;;12.20;7.28;;;1.20;1.00;;;;;;4993766;28;20172;-89
2023/02/07 02:39:05;;;;;;;13.98;8.32;;;1.20;1.00;;;;;;4994703;28;20188;-90
2023/02/07 02:42:00;;;;;;;15.05;7.85;;;1.10;1.00;;;;;;4994139;28;20278;-90
2023/02/07 02:44:32;;;;;;;18.30;7.57;;;1.10;1.00;;;;;;4998634;28;20204;-90
2023/02/07 02:47:05;;;;;;;16.90;8.60;;;1.10;1.00;;;;;;4994383;28;20195;-90
2023/02/07 02:49:54;;;;;;;20.92;8.27;;;1.10;1.00;;;;;;4995954;28;20227;-89
2023/02/07 02:52:21;;;;;;;19.40;8.32;;;1.10;1.00;;;;;;4993557;28;20188;-90
2023/02/07 02:54:53;;;;;;;14.93;8.73;;;1.10;1.00;;;;;;4983505;28;20217;-88
2023/02/07 02:57:48;;;;;;;15.77;8.75;;;1.10;1.00;;;;;;4993971;28;20190;-91
2023/02/07 03:00:35;;;;;;;24.25;8.52;;;1.10;1.00;;;;;;4993135;28;20174;-90
2023/02/07 03:03:20;;;;;;;15.75;9.27;;;1.00;1.00;;;;;;4987337;28;20194;-90
2023/02/07 03:06:00;;;;;;;15.38;8.52;;;1.00;1.00;;;;;;4992588;28;20200;-89
2023/02/07 03:08:42;;;;;;;18.75;8.00;;;1.00;1.00;;;;;;4989646;28;20202;-90
2023/02/07 03:11:21;;;;;;;16.20;8.50;;;0.90;1.00;;;;;;4996064;28;20184;-90
2023/02/07 03:14:05;;;;;;;15.48;9.07;;;0.90;1.00;;;;;;4999068;28;20185;-90
2023/02/07 03:16:37;;;;;;;15.95;8.15;;;0.90;1.00;;;;;;4989694;28;20561;-90
2023/02/07 03:19:39;;;;;;;14.75;8.70;;;0.80;1.00;;;;;;4994953;28;20287;-90
2023/02/07 03:22:12;;;;;;;18.67;8.60;;;0.70;63.80;;;;;;4980462;28;20261;-90
2023/02/07 03:24:51;;;;;;;15.27;7.60;;;0.70;99.90;;;;;;4993537;28;20203;-90
2023/02/07 03:27:21;;;;;;;14.90;9.20;;;0.70;99.90;;;;;;5001743;28;20643;-90
2023/02/07 03:31:00;;;;;;;;;;;;;;;;;;;;;
2023/02/07 03:51:53;;;;;;;19.70;10.63;;;0.50;99.90;;;;;;4976868;28;20207;-89
2023/02/07 03:55:18;;;;;;;14.75;7.90;;;0.50;99.90;;;;;;4997909;28;20198;-90
2023/02/07 03:57:53;;;;;;;20.30;8.15;;;0.50;99.90;;;;;;4980827;28;20195;-90
2023/02/07 04:00:19;;;;;;;21.88;9.65;;;0.50;99.90;;;;;;4989971;28;20172;-90
2023/02/07 04:02:44;;;;;;;19.90;8.17;;;0.50;99.90;;;;;;4990162;28;20188;-89
2023/02/07 04:05:10;;;;;;;15.37;7.87;;;0.50;99.90;;;;;;4990042;28;20454;-90
2023/02/07 04:07:36;;;;;;;24.17;7.90;;;0.50;99.90;;;;;;4995094;28;20212;-90
2023/02/07 04:10:03;;;;;;;12.87;7.50;;;0.50;99.90;;;;;;4996148;28;20872;-90
2023/02/07 04:12:32;;;;;;;16.10;7.00;;;0.50;99.90;;;;;;4991638;28;20462;-89
2023/02/07 04:14:59;;;;;;;16.30;8.13;;;0.50;99.90;;;;;;4996355;28;20579;-90
2023/02/07 04:17:25;;;;;;;19.65;9.27;;;0.50;99.90;;;;;;5007751;28;20194;-90
2023/02/07 04:19:53;;;;;;;13.40;8.23;;;0.50;99.90;;;;;;4990613;28;20184;-90
2023/02/07 04:22:19;;;;;;;17.83;9.25;;;0.50;99.90;;;;;;4991217;28;20187;-89
2023/02/07 04:24:45;;;;;;;14.10;8.90;;;0.50;99.90;;;;;;4983938;28;20291;-88
2023/02/07 04:27:11;;;;;;;15.57;8.10;;;0.50;99.90;;;;;;4986022;28;20440;-88
2023/02/07 04:29:37;;;;;;;11.47;7.60;;;0.50;99.90;;;;;;4987947;28;20706;-90
2023/02/07 04:32:05;;;;;;;15.40;8.70;;;0.40;99.90;;;;;;4992208;28;20434;-89
2023/02/07 04:34:30;;;;;;;19.70;9.30;;;0.40;99.90;;;;;;4993442;28;20207;-89
2023/02/07 04:36:56;;;;;;;16.73;8.40;;;0.40;99.90;;;;;;4991792;28;20176;-90
2023/02/07 04:39:22;;;;;;;15.90;8.57;;;0.40;99.90;;;;;;4997332;28;20270;-90
2023/02/07 04:41:47;;;;;;;14.77;8.97;;;0.40;99.90;;;;;;4989222;28;20659;-90
2023/02/07 04:44:13;;;;;;;11.00;7.77;;;0.40;99.90;;;;;;4990564;28;20270;-90
2023/02/07 04:46:39;;;;;;;15.60;8.63;;;0.40;99.90;;;;;;4992054;28;20198;-90
2023/02/07 04:49:04;;;;;;;23.13;7.97;;;0.40;99.90;;;;;;4991839;28;20215;-90
2023/02/07 04:51:30;;;;;;;16.70;8.13;;;0.40;99.90;;;;;;4991530;28;20186;-89
2023/02/07 04:53:56;;;;;;;13.07;6.90;;;0.40;99.90;;;;;;4991578;28;20253;-90
2023/02/07 04:56:22;;;;;;;15.43;8.00;;;0.40;99.90;;;;;;4998382;28;20438;-88
2023/02/07 04:58:48;;;;;;;14.43;8.50;;;0.30;99.90;;;;;;4994849;28;20191;-90
2023/02/07 05:01:13;;;;;;;35.43;14.00;;;0.30;99.90;;;;;;4985440;28;20195;-89
2023/02/07 05:03:39;;;;;;;16.37;8.67;;;0.30;99.90;;;;;;4990679;28;20496;-90
2023/02/07 05:06:08;;;;;;;14.77;7.30;;;0.30;99.90;;;;;;4991024;28;20190;-90
2023/02/07 05:08:35;;;;;;;23.20;8.55;;;0.20;99.90;;;;;;4990595;28;20288;-89
2023/02/07 05:11:06;;;;;;;16.92;8.10;;;0.20;99.90;;;;;;4989476;28;20713;-90
2023/02/07 05:13:32;;;;;;;19.15;7.82;;;0.10;83.40;;;;;;4989421;28;20176;-91
2023/02/07 05:15:57;;;;;;;14.87;8.10;;;0.10;99.90;;;;;;4991060;28;20657;-90
2023/02/07 05:18:23;;;;;;;20.67;9.23;;;0.00;99.90;;;;;;4990891;28;20237;-90
2023/02/07 05:20:48;;;;;;;21.00;8.60;;;0.00;99.90;;;;;;4986292;28;20290;-89
2023/02/07 05:23:26;;;;;;;15.80;8.00;;;0.00;99.90;;;;;;4994709;28;20648;-90
2023/02/07 05:25:51;;;;;;;21.30;7.60;;;0.00;1.00;;;;;;4995927;28;20203;-89
2023/02/07 05:28:17;;;;;;;18.80;10.20;;;0.00;1.00;;;;;;4997421;28;20219;-88
2023/02/07 05:30:42;;;;;;;16.53;8.77;;;0.00;1.00;;;;;;5000441;28;20179;-89
2023/02/07 05:33:10;;;;;;;19.07;9.13;;;-0.10;1.00;;;;;;4990274;28;20215;-90
2023/02/07 05:35:38;;;;;;;16.83;9.85;;;-0.10;1.00;;;;;;4994749;28;20234;-90
2023/02/07 05:38:07;;;;;;;29.83;11.35;;;-0.10;1.00;;;;;;4998845;28;22116;-89
2023/02/07 05:40:34;;;;;;;25.00;10.52;;;-0.10;1.00;;;;;;4993775;28;20731;-90
2023/02/07 05:42:59;;;;;;;25.58;11.10;;;-0.10;1.00;;;;;;4989743;28;20266;-90
2023/02/07 05:45:25;;;;;;;19.33;10.50;;;-0.10;1.00;;;;;;5000104;28;20294;-90
2023/02/07 05:47:51;;;;;;;17.07;10.30;;;-0.10;73.60;;;;;;4994030;28;20203;-90
2023/02/07 05:50:16;;;;;;;23.80;10.50;;;-0.20;99.90;;;;;;4988260;28;20188;-89
2023/02/07 05:52:50;;;;;;;22.63;10.80;;;-0.20;99.90;;;;;;4988598;28;20180;-89
2023/02/07 05:55:15;;;;;;;18.73;9.68;;;-0.20;99.90;;;;;;4982707;28;20196;-89
2023/02/07 05:57:42;;;;;;;24.30;9.17;;;-0.20;99.90;;;;;;4994892;28;20202;-90
2023/02/07 06:00:29;;;;;;;21.70;9.27;;;-0.20;99.90;;;;;;4991812;28;20473;-90
2023/02/07 06:02:55;;;;;;;21.92;9.52;;;-0.20;99.90;;;;;;4988622;28;20583;-90
2023/02/07 06:05:21;;;;;;;23.33;9.50;;;-0.20;99.90;;;;;;4986354;28;20212;-90
2023/02/07 06:07:47;;;;;;;22.02;10.13;;;-0.20;99.90;;;;;;4996075;28;20239;-90
2023/02/07 06:10:13;;;;;;;30.83;9.67;;;-0.20;99.90;;;;;;4984714;28;20218;-90
2023/02/07 06:12:39;;;;;;;39.50;11.80;;;-0.20;99.90;;;;;;4991211;28;20206;-90
2023/02/07 06:15:08;;;;;;;22.73;11.30;;;-0.20;99.90;;;;;;4995563;28;20203;-88
2023/02/07 06:17:34;;;;;;;24.90;9.02;;;-0.20;99.90;;;;;;4994866;28;20678;-90
2023/02/07 06:19:59;;;;;;;22.17;9.70;;;-0.20;99.90;;;;;;4990893;28;20183;-89
2023/02/07 06:22:25;;;;;;;20.40;9.47;;;-0.20;99.90;;;;;;4989318;28;20180;-90
2023/02/07 06:24:51;;;;;;;19.10;9.70;;;-0.10;99.90;;;;;;5002108;28;20571;-90
2023/02/07 06:27:16;;;;;;;21.20;9.80;;;-0.10;91.60;;;;;;4991201;28;20521;-90
2023/02/07 06:29:42;;;;;;;19.47;10.13;;;-0.20;46.40;;;;;;4988778;28;20227;-89
2023/02/07 06:32:07;;;;;;;24.40;11.90;;;-0.20;36.50;;;;;;4991121;28;20183;-90
2023/02/07 06:34:33;;;;;;;24.10;11.57;;;-0.10;15.20;;;;;;4985743;28;20286;-90
2023/02/07 06:36:59;;;;;;;22.47;11.90;;;-0.20;1.00;;;;;;4992080;28;20254;-89
2023/02/07 06:39:24;;;;;;;19.13;11.53;;;-0.10;1.00;;;;;;4993912;28;20191;-88
2023/02/07 06:41:50;;;;;;;27.40;11.17;;;-0.20;1.00;;;;;;4993350;28;20180;-90
2023/02/07 06:44:15;;;;;;;20.17;10.20;;;-0.20;1.00;;;;;;4992556;28;20981;-90
2023/02/07 06:46:41;;;;;;;21.57;10.73;;;-0.20;1.00;;;;;;4986650;28;20203;-90
2023/02/07 06:49:06;;;;;;;23.63;11.10;;;-0.20;1.00;;;;;;4982701;28;20215;-89
2023/02/07 06:51:32;;;;;;;17.60;9.83;;;-0.20;1.00;;;;;;4986830;28;20239;-89
2023/02/07 06:54:00;;;;;;;18.70;9.77;;;-0.30;1.00;;;;;;4989823;28;20295;-90
2023/02/07 06:56:25;;;;;;;26.55;10.25;;;-0.30;1.00;;;;;;4992206;28;20526;-90
2023/02/07 06:58:51;;;;;;;18.97;12.03;;;-0.30;1.00;;;;;;4987091;28;20278;-90
2023/02/07 07:01:18;;;;;;;16.03;9.87;;;-0.30;1.00;;;;;;4984590;28;20188;-89
2023/02/07 07:03:45;;;;;;;25.83;8.98;;;-0.30;1.00;;;;;;4990052;28;20282;-88
2023/02/07 07:06:10;;;;;;;15.55;9.50;;;-0.20;1.00;;;;;;4988652;28;20288;-88
2023/02/07 07:08:36;;;;;;;14.80;9.30;;;-0.10;1.00;;;;;;4989291;28;20684;-88
2023/02/07 07:11:02;;;;;;;19.33;9.30;;;0.00;1.00;;;;;;4985923;28;20195;-88
2023/02/07 07:13:27;;;;;;;24.37;11.83;;;0.00;1.00;;;;;;4988377;28;20195;-87
2023/02/07 07:15:53;;;;;;;20.33;11.07;;;0.10;1.00;;;;;;4989157;28;20200;-88
2023/02/07 07:18:22;;;;;;;18.80;11.70;;;0.20;1.00;;;;;;4990715;28;20958;-88
2023/02/07 07:20:57;;;;;;;19.40;10.07;;;0.30;1.00;;;;;;4987874;28;20278;-88
2023/02/07 07:23:23;;;;;;;17.35;9.93;;;0.40;1.00;;;;;;4984859;28;20188;-87
2023/02/07 07:25:53;;;;;;;11.77;9.13;;;0.50;99.90;;;;;;4989003;28;20251;-88
2023/02/07 07:28:19;;;;;;;13.02;8.45;;;0.50;99.90;;;;;;4989616;28;20226;-89
2023/02/07 07:30:44;;;;;;;18.53;9.63;;;0.60;8.90;;;;;;4985834;28;20192;-88
2023/02/07 07:33:10;;;;;;;15.40;9.67;;;0.60;1.00;;;;;;4989252;28;20319;-88
2023/02/07 07:35:35;;;;;;;19.23;9.53;;;0.60;1.00;;;;;;4991501;28;20219;-87
2023/02/07 07:38:01;;;;;;;18.93;8.40;;;0.80;1.00;;;;;;4991183;28;20261;-87
2023/02/07 07:40:27;;;;;;;21.13;8.33;;;2.10;99.90;;;;;;4987828;28;20664;-87
2023/02/07 07:42:52;;;;;;;17.00;8.53;;;4.50;99.90;;;;;;4984683;28;20888;-88
2023/02/07 07:45:18;;;;;;;12.10;7.73;;;6.80;99.90;;;;;;4982929;28;20208;-88
2023/02/07 07:47:44;;;;;;;12.63;8.37;;;8.80;31.60;;;;;;4990224;28;20214;-89
2023/02/07 07:50:10;;;;;;;16.00;7.97;;;10.50;1.00;;;;;;4989632;28;20456;-88
2023/02/07 07:52:35;;;;;;;14.43;8.40;;;12.00;99.90;;;;;;4990329;28;20245;-88
2023/02/07 07:55:01;;;;;;;18.30;8.87;;;13.40;99.90;;;;;;4989932;28;20270;-88
2023/02/07 07:57:27;;;;;;;15.10;9.97;;;14.40;99.90;;;;;;4988615;28;20188;-88
2023/02/07 07:59:56;;;;;;;13.43;9.23;;;15.50;99.90;;;;;;4988502;28;20194;-85
2023/02/07 08:02:23;;;;;;;15.97;10.17;;;16.60;99.90;;;;;;4978870;28;20440;-88
2023/02/07 08:04:49;;;;;;;14.37;8.40;;;17.60;99.90;;;;;;4989388;28;20456;-87
2023/02/07 08:07:14;;;;;;;12.70;7.70;;;18.40;99.90;;;;;;4988015;28;20431;-89
2023/02/07 08:09:41;;;;;;;11.40;7.43;;;18.90;99.90;;;;;;4988122;28;20851;-87
2023/02/07 08:12:07;;;;;;;15.93;8.90;;;19.60;99.90;;;;;;4988343;28;20457;-89
2023/02/07 08:14:33;;;;;;;11.83;8.70;;;20.20;99.90;;;;;;4989483;28;20990;-88
2023/02/07 08:16:58;;;;;;;10.10;7.83;;;20.70;99.90;;;;;;4984146;28;20314;-88
2023/02/07 08:19:24;;;;;;;13.00;8.43;;;20.90;99.90;;;;;;4992615;28;20652;-87
2023/02/07 08:21:49;;;;;;;16.90;8.63;;;21.30;99.90;;;;;;4989968;28;20269;-88
2023/02/07 08:24:15;;;;;;;12.20;7.77;;;21.70;99.90;;;;;;4990077;28;20289;-88
2023/02/07 08:26:40;;;;;;;11.47;7.93;;;21.90;99.90;;;;;;4991720;28;20703;-88
2023/02/07 08:29:06;;;;;;;14.73;8.20;;;22.20;99.90;;;;;;4990148;28;20227;-89
2023/02/07 08:31:32;;;;;;;12.00;7.77;;;22.40;99.90;;;;;;4989241;28;20187;-87
2023/02/07 08:33:57;;;;;;;17.83;8.17;;;22.40;99.90;;;;;;4989921;28;20290;-88
2023/02/07 08:36:23;;;;;;;10.40;6.93;;;22.70;99.90;;;;;;4992165;28;20184;-88
2023/02/07 08:38:49;;;;;;;10.93;8.10;;;22.80;99.90;;;;;;4990695;28;20702;-89
2023/02/07 08:41:15;;;;;;;13.50;8.40;;;23.00;99.90;;;;;;4990507;28;20203;-88
2023/02/07 08:43:41;;;;;;;10.77;7.77;;;23.10;99.90;;;;;;4990602;28;20473;-88
2023/02/07 08:46:07;;;;;;;16.50;7.30;;;23.10;99.90;;;;;;4990444;28;20184;-87
2023/02/07 08:48:35;;;;;;;10.27;6.93;;;23.10;99.90;;;;;;4984895;28;20739;-88
2023/02/07 08:51:08;;;;;;;11.63;6.87;;;23.00;99.90;;;;;;4991741;28;20489;-86
2023/02/07 08:53:46;;;;;;;8.37;6.07;;;23.10;99.90;;;;;;4994122;28;20529;-88
2023/02/07 08:56:11;;;;;;;9.10;6.67;;;23.10;99.90;;;;;;4994985;28;20457;-90
2023/02/07 08:58:38;;;;;;;22.03;8.40;;;22.90;99.90;;;;;;4995941;28;20458;-88
2023/02/07 09:01:06;;;;;;;9.60;6.67;;;22.90;99.90;;;;;;4996015;28;20658;-89
2023/02/07 09:03:32;;;;;;;14.60;6.80;;;22.90;99.90;;;;;;4994285;28;21407;-86
2023/02/07 09:05:58;;;;;;;8.20;6.63;;;22.70;99.90;;;;;;4989694;28;20460;-87
2023/02/07 09:08:24;;;;;;;8.47;6.07;;;22.70;99.90;;;;;;4989690;28;20617;-88
2023/02/07 09:10:49;;;;;;;9.57;6.13;;;22.80;99.90;;;;;;4993040;28;20529;-88
2023/02/07 09:13:19;;;;;;;11.57;5.70;;;23.30;99.90;;;;;;4995129;28;20234;-89
2023/02/07 09:15:57;;;;;;;8.00;5.40;;;23.80;99.90;;;;;;4986183;28;20250;-88
2023/02/07 09:18:29;;;;;;;6.47;5.40;;;24.40;99.90;;;;;;4996238;28;20454;-89
2023/02/07 09:20:55;;;;;;;5.50;4.97;;;24.20;99.90;;;;;;4990702;28;20450;-85
2023/02/07 09:23:21;;;;;;;7.60;6.00;;;24.00;99.90;;;;;;4979190;28;20451;-86
2023/02/07 09:25:48;;;;;;;6.30;5.70;;;23.70;99.90;;;;;;4987645;28;20211;-85
2023/02/07 09:28:18;;;;;;;7.33;5.00;;;23.40;99.90;;;;;;4993556;28;20238;-86
2023/02/07 09:30:45;;;;;;;5.97;5.40;;;23.40;99.90;;;;;;4990033;28;20968;-88
2023/02/07 09:33:12;;;;;;;6.93;6.23;;;23.30;99.90;;;;;;4993434;28;20426;-88
2023/02/07 09:35:40;;;;;;;5.73;5.03;;;23.40;99.90;;;;;;5002355;28;20466;-88
2023/02/07 09:38:08;;;;;;;5.90;5.30;;;23.10;99.90;;;;;;4994545;28;21070;-87
2023/02/07 09:40:34;;;;;;;6.90;5.60;;;22.90;99.90;;;;;;4994390;28;20525;-87
2023/02/07 09:43:06;;;;;;;5.23;4.73;;;22.70;99.90;;;;;;4994154;28;20476;-87
2023/02/07 09:45:36;;;;;;;5.40;4.90;;;22.60;99.90;;;;;;4993958;28;20461;-88
2023/02/07 09:48:16;;;;;;;6.53;5.33;;;22.30;99.90;;;;;;4993499;28;20439;-88
2023/02/07 09:50:49;;;;;;;5.60;5.10;;;22.00;99.90;;;;;;4990235;28;20516;-87
2023/02/07 09:53:35;;;;;;;8.43;5.60;;;21.90;99.90;;;;;;4993161;28;20474;-88
2023/02/07 09:56:07;;;;;;;9.00;5.93;;;21.60;99.90;;;;;;4987087;28;20493;-88
2023/02/07 09:58:44;;;;;;;7.10;6.27;;;21.10;99.90;;;;;;4986447;28;20585;-89
2023/02/07 10:01:25;;;;;;;6.67;6.07;;;21.00;99.90;;;;;;4987112;28;20465;-89
2023/02/07 10:04:14;;;;;;;6.10;5.50;;;20.90;99.90;;;;;;4993039;28;20509;-87
2023/02/07 10:06:44;;;;;;;5.87;5.27;;;20.50;99.90;;;;;;4987382;28;20435;-89
2023/02/07 10:09:14;;;;;;;6.90;6.20;;;20.30;99.90;;;;;;4983067;28;20612;-89
2023/02/07 10:11:43;;;;;;;6.77;6.07;;;20.00;99.90;;;;;;4989832;28;21014;-89
2023/02/07 10:14:36;;;;;;;8.13;5.97;;;19.60;99.90;;;;;;5002763;28;22583;-89
2023/02/07 10:17:49;;;;;;;7.20;6.30;;;18.80;99.90;;;;;;4982539;28;20813;-89
2023/02/07 10:20:18;;;;;;;6.80;5.87;;;17.70;99.90;;;;;;4990382;28;20430;-90
2023/02/07 10:23:16;;;;;;;6.87;6.17;;;16.70;99.90;;;;;;4984542;28;20512;-89
2023/02/07 10:26:09;;;;;;;8.03;6.83;;;15.40;99.90;;;;;;4984565;28;20455;-88
2023/02/07 10:29:04;;;;;;;7.10;5.60;;;13.90;99.90;;;;;;4990078;28;20529;-88
2023/02/07 10:31:32;;;;;;;11.97;7.73;;;12.70;99.90;;;;;;4990900;28;20440;-89
2023/02/07 10:34:10;;;;;;;8.10;5.50;;;11.90;99.90;;;;;;4990511;28;20450;-87
2023/02/07 10:36:44;;;;;;;7.93;6.70;;;11.20;99.90;;;;;;4992570;28;20447;-87
2023/02/07 10:39:36;;;;;;;9.90;6.43;;;10.50;99.90;;;;;;4991564;28;20541;-88
2023/02/07 10:42:01;;;;;;;7.43;6.30;;;9.70;99.90;;;;;;4991955;28;20816;-87
2023/02/07 10:44:28;;;;;;;11.37;6.97;;;9.20;99.90;;;;;;4986478;28;20455;-91
2023/02/07 10:46:59;;;;;;;8.27;6.77;;;8.70;99.90;;;;;;4989318;28;20246;-86
2023/02/07 10:49:28;;;;;;;7.20;6.50;;;8.40;99.90;;;;;;4991866;28;20451;-88
2023/02/07 10:52:01;;;;;;;7.70;6.07;;;7.90;99.90;;;;;;4984294;28;20457;-87
2023/02/07 10:54:27;;;;;;;7.93;6.38;;;7.70;99.90;;;;;;4989407;28;20218;-86
2023/02/07 10:57:06;;;;;;;7.88;5.65;;;7.60;99.90;;;;;;4987121;28;20187;-87
2023/02/07 10:59:58;;;;;;;7.63;6.13;;;7.40;99.90;;;;;;4991996;28;20223;-88
2023/02/07 11:02:32;;;;;;;8.35;6.38;;;7.40;99.90;;;;;;4988654;28;20176;-86
2023/02/07 11:05:00;;;;;;;6.35;5.60;;;7.40;99.90;;;;;;5002230;28;20630;-88
2023/02/07 11:07:26;;;;;;;6.97;5.50;;;7.40;99.90;;;;;;4987905;28;20189;-87
2023/02/07 11:10:19;;;;;;;6.17;5.07;;;7.50;99.90;;;;;;4988707;28;20819;-88
2023/02/07 11:12:47;;;;;;;7.13;5.10;;;7.80;99.90;;;;;;4986898;28;20549;-87
2023/02/07 11:15:19;;;;;;;8.67;5.87;;;9.00;99.90;;;;;;4988434;28;20464;-87
2023/02/07 11:17:49;;;;;;;6.50;5.80;;;10.80;99.90;;;;;;4990372;28;20447;-88
2023/02/07 11:20:29;;;;;;;8.20;6.63;;;12.90;99.90;;;;;;4990978;28;20430;-89
2023/02/07 11:22:58;;;;;;;8.20;6.30;;;14.50;99.90;;;;;;4981618;28;20506;-88
2023/02/07 11:25:53;;;;;;;10.47;6.70;;;15.90;99.90;;;;;;4987147;28;20460;-87
2023/02/07 11:28:24;;;;;;;10.20;5.90;;;16.90;99.90;;;;;;4984388;28;20453;-87
2023/02/07 11:31:01;;;;;;;9.93;6.67;;;17.40;99.90;;;;;;4982611;28;20552;-88
2023/02/07 11:33:30;;;;;;;7.03;6.30;;;18.20;99.90;;;;;;4983936;28;21030;-88
2023/02/07 11:36:33;;;;;;;10.70;5.67;;;18.70;99.90;;;;;;4988430;28;20460;-87
2023/02/07 11:38:59;;;;;;;9.03;6.90;;;19.30;99.90;;;;;;4989664;28;20572;-87
2023/02/07 11:41:28;;;;;;;9.23;7.43;;;19.40;99.90;;;;;;4987083;28;21105;-88
2023/02/07 11:44:00;;;;;;;8.43;7.50;;;19.40;99.90;;;;;;4988116;28;20489;-88
2023/02/07 11:46:41;;;;;;;9.47;8.33;;;19.30;99.90;;;;;;4986087;28;20548;-87
2023/02/07 11:49:23;;;;;;;10.20;8.30;;;19.00;99.90;;;;;;4989108;28;20454;-88
2023/02/07 11:51:51;;;;;;;11.63;8.40;;;18.80;99.90;;;;;;4985210;28;21209;-87
2023/02/07 11:54:17;;;;;;;10.77;7.30;;;18.70;99.90;;;;;;4989652;28;20604;-87
2023/02/07 11:56:48;;;;;;;8.03;7.00;;;19.00;99.90;;;;;;4989994;28;20537;-87
2023/02/07 11:59:25;;;;;;;8.87;7.30;;;19.30;99.90;;;;;;4986812;28;20466;-87
2023/02/07 12:02:02;;;;;;;9.47;7.37;;;19.40;99.90;;;;;;4984981;28;20446;-86
2023/02/07 12:04:33;;;;;;;12.80;7.83;;;19.10;99.90;;;;;;4990288;28;20972;-87
2023/02/07 12:07:07;;;;;;;10.53;7.37;;;19.10;99.90;;;;;;4988962;28;20465;-86
2023/02/07 12:09:51;;;;;;;8.80;7.27;;;19.00;99.90;;;;;;4991286;28;20479;-86
2023/02/07 12:12:22;;;;;;;14.13;7.60;;;19.20;99.90;;;;;;4984464;28;20439;-85
2023/02/07 12:14:55;;;;;;;10.33;7.47;;;19.10;99.90;;;;;;4986863;28;20513;-87
2023/02/07 12:17:32;;;;;;;8.63;7.73;;;19.30;99.90;;;;;;4989090;28;20458;-86
2023/02/07 12:20:04;;;;;;;10.23;7.40;;;19.20;99.90;;;;;;4984010;28;20460;-85
2023/02/07 12:23:07;;;;;;;9.13;6.90;;;18.80;99.90;;;;;;4992030;28;20417;-87
2023/02/07 12:25:42;;;;;;;8.07;7.10;;;18.90;99.90;;;;;;4993045;28;20542;-86
2023/02/07 12:28:32;;;;;;;9.60;7.03;;;18.70;99.90;;;;;;4995320;28;20427;-87
2023/02/07 12:31:04;;;;;;;10.87;7.57;;;18.70;99.90;;;;;;4990275;28;20441;-87
2023/02/07 12:33:40;;;;;;;11.53;8.00;;;18.50;99.90;;;;;;4989526;28;20457;-86
2023/02/07 12:36:26;;;;;;;7.83;6.40;;;18.30;99.90;;;;;;4997416;28;20456;-85
2023/02/07 12:38:59;;;;;;;9.50;8.33;;;18.30;99.90;;;;;;4992254;28;20529;-85
2023/02/07 12:41:44;;;;;;;8.47;7.27;;;18.10;99.90;;;;;;4990627;28;20439;-86
2023/02/07 12:44:20;;;;;;;16.10;8.50;;;17.90;99.90;;;;;;4990226;28;20504;-86
2023/02/07 12:47:12;;;;;;;14.53;8.90;;;17.80;99.90;;;;;;4991539;28;20465;-86
2023/02/07 12:50:08;;;;;;;11.87;7.77;;;17.70;99.90;;;;;;4987074;28;20458;-86
2023/02/07 12:52:33;;;;;;;13.87;8.50;;;17.70;99.90;;;;;;4980889;28;20991;-86
2023/02/07 12:55:02;;;;;;;10.53;8.37;;;17.80;99.90;;;;;;4990459;28;20470;-88
2023/02/07 12:57:39;;;;;;;11.37;8.37;;;17.60;99.90;;;;;;4990160;28;20182;-87
2023/02/07 13:00:22;;;;;;;7.80;6.77;;;17.80;99.90;;;;;;4973156;28;20451;-85
2023/02/07 13:03:11;;;;;;;8.80;7.33;;;18.10;99.90;;;;;;4982435;28;21020;-86
2023/02/07 13:05:46;;;;;;;7.83;6.47;;;17.70;99.90;;;;;;4987338;28;20473;-86
2023/02/07 13:08:36;;;;;;;9.23;7.17;;;17.40;99.90;;;;;;4991581;28;20433;-86
2023/02/07 13:11:26;;;;;;;9.73;7.83;;;17.30;99.90;;;;;;4982213;28;20435;-87
2023/02/07 13:14:22;;;;;;;10.00;7.30;;;17.20;99.90;;;;;;4983023;28;20529;-86
2023/02/07 13:16:53;;;;;;;8.87;7.93;;;17.30;99.90;;;;;;4990979;28;20475;-87
2023/02/07 13:19:45;;;;;;;16.43;8.00;;;17.10;99.90;;;;;;4992361;28;20473;-87
2023/02/07 13:22:35;;;;;;;8.20;6.60;;;16.90;99.90;;;;;;4956730;28;20456;-86
2023/02/07 13:25:06;;;;;;;9.83;6.97;;;17.00;99.90;;;;;;4980014;28;20457;-86
2023/02/07 13:27:35;;;;;;;9.90;6.40;;;16.80;99.90;;;;;;4999196;28;20432;-86
2023/02/07 13:30:01;;;;;;;11.80;7.60;;;16.90;99.90;;;;;;4988986;28;20520;-86